sensor_id;sensor_type;location;lat;lon;timestamp;P1;durP1;ratioP1;P2;durP2;ratioP2
55931;SDS011;41837;55.700;37.984;2023-04-25T00:00:55;41.63;;;16.60;;
55931;SDS011;41837;55.700;37.984;2023-04-25T00:03:22;48.15;;;16.17;;
55931;SDS011;41837;55.700;37.984;2023-04-25T00:05:51;34.40;;;14.98;;
55931;SDS011;41837;55.700;37.984;2023-04-25T00:08:17;47.28;;;15.43;;
55931;SDS011;41837;55.700;37.984;2023-04-25T00:10:44;38.22;;;15.50;;
55931;SDS011;41837;55.700;37.984;2023-04-25T00:13:10;46.15;;;15.85;;
55931;SDS011;41837;55.700;37.984;2023-04-25T00:15:36;46.22;;;16.65;;
55931;SDS011;41837;55.700;37.984;2023-04-25T00:18:04;30.27;;;12.43;;
55931;SDS011;41837;55.700;37.984;2023-04-25T00:20:31;27.20;;;11.20;;
55931;SDS011;41837;55.700;37.984;2023-04-25T00:22:57;28.20;;;10.45;;
55931;SDS011;41837;55.700;37.984;2023-04-25T00:25:26;20.02;;;9.32;;
55931;SDS011;41837;55.700;37.984;2023-04-25T00:27:52;13.88;;;5.30;;
55931;SDS011;41837;55.700;37.984;2023-04-25T00:30:18;15.80;;;4.47;;
55931;SDS011;41837;55.700;37.984;2023-04-25T00:32:45;18.45;;;4.28;;
55931;SDS011;41837;55.700;37.984;2023-04-25T00:35:11;9.93;;;3.80;;
55931;SDS011;41837;55.700;37.984;2023-04-25T00:37:38;7.63;;;3.63;;
55931;SDS011;41837;55.700;37.984;2023-04-25T00:40:07;9.48;;;3.80;;
55931;SDS011;41837;55.700;37.984;2023-04-25T00:42:34;13.05;;;5.35;;
55931;SDS011;41837;55.700;37.984;2023-04-25T00:45:02;13.40;;;5.82;;
55931;SDS011;41837;55.700;37.984;2023-04-25T00:47:31;12.30;;;6.22;;
55931;SDS011;41837;55.700;37.984;2023-04-25T00:49:59;15.35;;;6.28;;
55931;SDS011;41837;55.700;37.984;2023-04-25T00:52:25;18.27;;;6.53;;
55931;SDS011;41837;55.700;37.984;2023-04-25T00:54:51;17.35;;;6.95;;
55931;SDS011;41837;55.700;37.984;2023-04-25T00:57:18;24.08;;;7.35;;
55931;SDS011;41837;55.700;37.984;2023-04-25T00:59:45;18.30;;;7.18;;
55931;SDS011;41837;55.700;37.984;2023-04-25T01:02:12;16.48;;;7.88;;
55931;SDS011;41837;55.700;37.984;2023-04-25T01:04:39;19.33;;;7.40;;
55931;SDS011;41837;55.700;37.984;2023-04-25T01:07:05;18.45;;;8.32;;
55931;SDS011;41837;55.700;37.984;2023-04-25T01:09:32;19.08;;;7.25;;
55931;SDS011;41837;55.700;37.984;2023-04-25T01:11:59;19.65;;;8.07;;
55931;SDS011;41837;55.700;37.984;2023-04-25T01:14:27;12.95;;;6.93;;
55931;SDS011;41837;55.700;37.984;2023-04-25T01:16:52;19.25;;;7.43;;
55931;SDS011;41837;55.700;37.984;2023-04-25T01:19:19;19.35;;;7.88;;
55931;SDS011;41837;55.700;37.984;2023-04-25T01:21:45;19.83;;;8.40;;
55931;SDS011;41837;55.700;37.984;2023-04-25T01:24:12;14.98;;;8.00;;
55931;SDS011;41837;55.700;37.984;2023-04-25T01:26:39;18.60;;;7.82;;
55931;SDS011;41837;55.700;37.984;2023-04-25T01:29:10;18.38;;;8.43;;
55931;SDS011;41837;55.700;37.984;2023-04-25T01:31:36;22.33;;;8.48;;
55931;SDS011;41837;55.700;37.984;2023-04-25T01:34:04;20.90;;;8.65;;
55931;SDS011;41837;55.700;37.984;2023-04-25T01:36:31;21.73;;;8.00;;
55931;SDS011;41837;55.700;37.984;2023-04-25T01:38:59;23.38;;;7.90;;
55931;SDS011;41837;55.700;37.984;2023-04-25T01:41:26;20.02;;;8.27;;
55931;SDS011;41837;55.700;37.984;2023-04-25T01:43:53;20.25;;;8.77;;
55931;SDS011;41837;55.700;37.984;2023-04-25T01:46:20;16.88;;;8.85;;
55931;SDS011;41837;55.700;37.984;2023-04-25T01:48:46;22.33;;;9.45;;
55931;SDS011;41837;55.700;37.984;2023-04-25T01:51:12;28.80;;;9.77;;
55931;SDS011;41837;55.700;37.984;2023-04-25T01:53:39;31.50;;;9.43;;
55931;SDS011;41837;55.700;37.984;2023-04-25T01:56:05;25.60;;;9.38;;
55931;SDS011;41837;55.700;37.984;2023-04-25T01:58:34;21.80;;;8.82;;
55931;SDS011;41837;55.700;37.984;2023-04-25T02:01:09;27.60;;;9.05;;
55931;SDS011;41837;55.700;37.984;2023-04-25T02:03:42;23.85;;;9.57;;
55931;SDS011;41837;55.700;37.984;2023-04-25T02:06:24;25.13;;;10.80;;
55931;SDS011;41837;55.700;37.984;2023-04-25T02:08:52;26.42;;;10.25;;
55931;SDS011;41837;55.700;37.984;2023-04-25T02:11:18;16.27;;;9.38;;
55931;SDS011;41837;55.700;37.984;2023-04-25T02:13:52;18.52;;;9.30;;
55931;SDS011;41837;55.700;37.984;2023-04-25T02:16:51;19.88;;;8.30;;
55931;SDS011;41837;55.700;37.984;2023-04-25T02:19:18;24.73;;;8.73;;
55931;SDS011;41837;55.700;37.984;2023-04-25T02:21:46;20.90;;;8.50;;
55931;SDS011;41837;55.700;37.984;2023-04-25T02:24:12;20.30;;;8.73;;
55931;SDS011;41837;55.700;37.984;2023-04-25T02:26:38;30.45;;;9.45;;
55931;SDS011;41837;55.700;37.984;2023-04-25T02:29:07;20.75;;;8.00;;
55931;SDS011;41837;55.700;37.984;2023-04-25T02:31:34;20.40;;;8.73;;
55931;SDS011;41837;55.700;37.984;2023-04-25T02:34:00;22.77;;;8.70;;
55931;SDS011;41837;55.700;37.984;2023-04-25T02:36:26;23.13;;;8.88;;
55931;SDS011;41837;55.700;37.984;2023-04-25T02:38:53;21.88;;;9.10;;
55931;SDS011;41837;55.700;37.984;2023-04-25T02:41:20;22.40;;;8.20;;
55931;SDS011;41837;55.700;37.984;2023-04-25T02:43:47;18.92;;;9.40;;
55931;SDS011;41837;55.700;37.984;2023-04-25T02:46:12;24.23;;;9.10;;
55931;SDS011;41837;55.700;37.984;2023-04-25T02:48:39;23.52;;;9.43;;
55931;SDS011;41837;55.700;37.984;2023-04-25T02:51:05;22.58;;;8.82;;
55931;SDS011;41837;55.700;37.984;2023-04-25T02:53:31;23.13;;;9.10;;
55931;SDS011;41837;55.700;37.984;2023-04-25T02:55:57;19.35;;;8.57;;
55931;SDS011;41837;55.700;37.984;2023-04-25T02:58:24;18.35;;;8.85;;
55931;SDS011;41837;55.700;37.984;2023-04-25T03:00:52;18.50;;;7.93;;
55931;SDS011;41837;55.700;37.984;2023-04-25T03:03:18;18.27;;;8.43;;
55931;SDS011;41837;55.700;37.984;2023-04-25T03:05:48;20.55;;;8.70;;
55931;SDS011;41837;55.700;37.984;2023-04-25T03:08:20;19.33;;;8.32;;
55931;SDS011;41837;55.700;37.984;2023-04-25T03:10:46;23.90;;;9.10;;
55931;SDS011;41837;55.700;37.984;2023-04-25T03:13:14;28.17;;;9.35;;
55931;SDS011;41837;55.700;37.984;2023-04-25T03:15:42;21.65;;;8.93;;
55931;SDS011;41837;55.700;37.984;2023-04-25T03:18:10;16.38;;;7.97;;
55931;SDS011;41837;55.700;37.984;2023-04-25T03:20:36;15.73;;;7.85;;
55931;SDS011;41837;55.700;37.984;2023-04-25T03:23:03;21.77;;;10.77;;
55931;SDS011;41837;55.700;37.984;2023-04-25T03:25:29;17.75;;;9.07;;
55931;SDS011;41837;55.700;37.984;2023-04-25T03:27:56;17.68;;;9.40;;
55931;SDS011;41837;55.700;37.984;2023-04-25T03:30:22;20.75;;;8.50;;
55931;SDS011;41837;55.700;37.984;2023-04-25T03:32:48;17.08;;;7.75;;
55931;SDS011;41837;55.700;37.984;2023-04-25T03:35:16;17.90;;;7.55;;
55931;SDS011;41837;55.700;37.984;2023-04-25T03:37:42;14.27;;;6.68;;
55931;SDS011;41837;55.700;37.984;2023-04-25T03:40:14;14.75;;;6.38;;
55931;SDS011;41837;55.700;37.984;2023-04-25T03:43:06;11.88;;;5.97;;
55931;SDS011;41837;55.700;37.984;2023-04-25T03:45:34;14.18;;;7.00;;
55931;SDS011;41837;55.700;37.984;2023-04-25T03:48:00;14.77;;;6.32;;
55931;SDS011;41837;55.700;37.984;2023-04-25T03:50:28;14.07;;;6.63;;
55931;SDS011;41837;55.700;37.984;2023-04-25T03:52:54;14.90;;;6.50;;
55931;SDS011;41837;55.700;37.984;2023-04-25T03:55:21;11.93;;;6.13;;
55931;SDS011;41837;55.700;37.984;2023-04-25T03:57:48;12.25;;;6.22;;
55931;SDS011;41837;55.700;37.984;2023-04-25T04:00:15;17.13;;;6.03;;
55931;SDS011;41837;55.700;37.984;2023-04-25T04:02:41;12.05;;;6.45;;
55931;SDS011;41837;55.700;37.984;2023-04-25T04:05:11;13.27;;;5.90;;
55931;SDS011;41837;55.700;37.984;2023-04-25T04:07:44;17.52;;;6.28;;
55931;SDS011;41837;55.700;37.984;2023-04-25T04:10:23;13.05;;;7.10;;
55931;SDS011;41837;55.700;37.984;2023-04-25T04:12:51;10.60;;;6.95;;
55931;SDS011;41837;55.700;37.984;2023-04-25T04:15:18;18.90;;;7.10;;
55931;SDS011;41837;55.700;37.984;2023-04-25T04:17:45;13.00;;;6.93;;
55931;SDS011;41837;55.700;37.984;2023-04-25T04:20:13;14.73;;;6.47;;
55931;SDS011;41837;55.700;37.984;2023-04-25T04:22:40;14.90;;;6.05;;
55931;SDS011;41837;55.700;37.984;2023-04-25T04:25:10;14.10;;;6.47;;
55931;SDS011;41837;55.700;37.984;2023-04-25T04:27:55;17.17;;;6.63;;
55931;SDS011;41837;55.700;37.984;2023-04-25T04:30:48;11.10;;;6.10;;
55931;SDS011;41837;55.700;37.984;2023-04-25T04:33:17;14.55;;;7.05;;
55931;SDS011;41837;55.700;37.984;2023-04-25T04:35:53;15.82;;;6.57;;
55931;SDS011;41837;55.700;37.984;2023-04-25T04:38:21;16.90;;;6.90;;
55931;SDS011;41837;55.700;37.984;2023-04-25T04:40:49;15.63;;;6.07;;
55931;SDS011;41837;55.700;37.984;2023-04-25T04:43:39;20.15;;;6.88;;
55931;SDS011;41837;55.700;37.984;2023-04-25T04:46:25;16.45;;;6.78;;
55931;SDS011;41837;55.700;37.984;2023-04-25T04:49:16;20.50;;;7.35;;
55931;SDS011;41837;55.700;37.984;2023-04-25T04:52:00;16.02;;;7.10;;
55931;SDS011;41837;55.700;37.984;2023-04-25T04:54:50;16.50;;;7.20;;
55931;SDS011;41837;55.700;37.984;2023-04-25T04:57:28;17.75;;;7.53;;
55931;SDS011;41837;55.700;37.984;2023-04-25T05:00:05;16.55;;;6.88;;
55931;SDS011;41837;55.700;37.984;2023-04-25T05:03:08;16.55;;;7.20;;
55931;SDS011;41837;55.700;37.984;2023-04-25T05:06:03;17.35;;;7.00;;
55931;SDS011;41837;55.700;37.984;2023-04-25T05:08:49;13.85;;;6.30;;
55931;SDS011;41837;55.700;37.984;2023-04-25T05:11:35;15.65;;;6.38;;
55931;SDS011;41837;55.700;37.984;2023-04-25T05:14:22;15.70;;;6.65;;
55931;SDS011;41837;55.700;37.984;2023-04-25T05:17:06;16.42;;;6.85;;
55931;SDS011;41837;55.700;37.984;2023-04-25T05:19:51;19.02;;;9.95;;
55931;SDS011;41837;55.700;37.984;2023-04-25T05:22:33;20.15;;;7.22;;
55931;SDS011;41837;55.700;37.984;2023-04-25T05:25:09;17.40;;;6.63;;
55931;SDS011;41837;55.700;37.984;2023-04-25T05:28:02;16.77;;;6.00;;
55931;SDS011;41837;55.700;37.984;2023-04-25T05:30:47;12.23;;;6.10;;
55931;SDS011;41837;55.700;37.984;2023-04-25T05:33:17;12.45;;;6.22;;
55931;SDS011;41837;55.700;37.984;2023-04-25T05:35:44;14.88;;;6.90;;
55931;SDS011;41837;55.700;37.984;2023-04-25T05:38:11;16.05;;;6.05;;
55931;SDS011;41837;55.700;37.984;2023-04-25T05:40:55;13.75;;;6.05;;
55931;SDS011;41837;55.700;37.984;2023-04-25T05:43:59;16.73;;;5.82;;
55931;SDS011;41837;55.700;37.984;2023-04-25T05:46:34;11.52;;;5.65;;
55931;SDS011;41837;55.700;37.984;2023-04-25T05:49:24;14.00;;;5.78;;
55931;SDS011;41837;55.700;37.984;2023-04-25T05:52:00;15.48;;;6.30;;
55931;SDS011;41837;55.700;37.984;2023-04-25T05:54:30;12.82;;;5.85;;
55931;SDS011;41837;55.700;37.984;2023-04-25T05:56:56;11.73;;;5.68;;
55931;SDS011;41837;55.700;37.984;2023-04-25T05:59:23;27.20;;;6.13;;
55931;SDS011;41837;55.700;37.984;2023-04-25T06:01:50;17.20;;;5.72;;
55931;SDS011;41837;55.700;37.984;2023-04-25T06:04:16;16.35;;;5.72;;
55931;SDS011;41837;55.700;37.984;2023-04-25T06:06:42;15.77;;;5.65;;
55931;SDS011;41837;55.700;37.984;2023-04-25T06:09:08;12.48;;;5.13;;
55931;SDS011;41837;55.700;37.984;2023-04-25T06:11:34;13.10;;;5.15;;
55931;SDS011;41837;55.700;37.984;2023-04-25T06:14:02;14.75;;;5.10;;
55931;SDS011;41837;55.700;37.984;2023-04-25T06:16:30;15.02;;;5.28;;
55931;SDS011;41837;55.700;37.984;2023-04-25T06:18:56;17.63;;;5.60;;
55931;SDS011;41837;55.700;37.984;2023-04-25T06:21:22;14.60;;;5.50;;
55931;SDS011;41837;55.700;37.984;2023-04-25T06:23:50;15.73;;;6.03;;
55931;SDS011;41837;55.700;37.984;2023-04-25T06:26:32;17.83;;;5.70;;
55931;SDS011;41837;55.700;37.984;2023-04-25T06:28:58;12.27;;;4.63;;
55931;SDS011;41837;55.700;37.984;2023-04-25T06:31:24;12.02;;;5.30;;
55931;SDS011;41837;55.700;37.984;2023-04-25T06:34:03;15.95;;;4.82;;
55931;SDS011;41837;55.700;37.984;2023-04-25T06:36:43;12.73;;;4.53;;
55931;SDS011;41837;55.700;37.984;2023-04-25T06:39:13;16.80;;;5.25;;
55931;SDS011;41837;55.700;37.984;2023-04-25T06:41:41;9.80;;;4.55;;
55931;SDS011;41837;55.700;37.984;2023-04-25T06:44:28;9.20;;;4.32;;
55931;SDS011;41837;55.700;37.984;2023-04-25T06:46:56;10.07;;;3.30;;
55931;SDS011;41837;55.700;37.984;2023-04-25T06:49:22;11.52;;;3.67;;
55931;SDS011;41837;55.700;37.984;2023-04-25T06:51:49;13.23;;;4.72;;
55931;SDS011;41837;55.700;37.984;2023-04-25T06:54:16;11.50;;;4.13;;
55931;SDS011;41837;55.700;37.984;2023-04-25T06:56:53;9.88;;;4.65;;
55931;SDS011;41837;55.700;37.984;2023-04-25T06:59:19;6.88;;;3.67;;
55931;SDS011;41837;55.700;37.984;2023-04-25T07:01:46;13.57;;;4.25;;
55931;SDS011;41837;55.700;37.984;2023-04-25T07:04:16;15.02;;;4.30;;
55931;SDS011;41837;55.700;37.984;2023-04-25T07:06:49;9.05;;;3.67;;
55931;SDS011;41837;55.700;37.984;2023-04-25T07:09:20;9.20;;;3.60;;
55931;SDS011;41837;55.700;37.984;2023-04-25T07:11:48;12.27;;;3.70;;
55931;SDS011;41837;55.700;37.984;2023-04-25T07:14:14;10.27;;;4.35;;
55931;SDS011;41837;55.700;37.984;2023-04-25T07:16:41;12.48;;;4.18;;
55931;SDS011;41837;55.700;37.984;2023-04-25T07:19:07;10.20;;;4.18;;
55931;SDS011;41837;55.700;37.984;2023-04-25T07:21:34;9.23;;;3.95;;
55931;SDS011;41837;55.700;37.984;2023-04-25T07:24:02;13.80;;;4.60;;
55931;SDS011;41837;55.700;37.984;2023-04-25T07:26:33;16.13;;;4.65;;
55931;SDS011;41837;55.700;37.984;2023-04-25T07:29:14;12.23;;;4.30;;
55931;SDS011;41837;55.700;37.984;2023-04-25T07:31:41;15.40;;;4.80;;
55931;SDS011;41837;55.700;37.984;2023-04-25T07:34:07;7.93;;;3.58;;
55931;SDS011;41837;55.700;37.984;2023-04-25T07:36:34;14.48;;;4.38;;
55931;SDS011;41837;55.700;37.984;2023-04-25T07:39:00;7.70;;;3.70;;
55931;SDS011;41837;55.700;37.984;2023-04-25T07:41:26;11.10;;;3.28;;
55931;SDS011;41837;55.700;37.984;2023-04-25T07:43:52;10.32;;;3.58;;
55931;SDS011;41837;55.700;37.984;2023-04-25T07:46:19;12.25;;;4.03;;
55931;SDS011;41837;55.700;37.984;2023-04-25T07:48:45;5.50;;;3.63;;
55931;SDS011;41837;55.700;37.984;2023-04-25T07:51:11;11.18;;;4.40;;
55931;SDS011;41837;55.700;37.984;2023-04-25T07:53:38;13.32;;;4.00;;
55931;SDS011;41837;55.700;37.984;2023-04-25T07:56:11;12.00;;;3.67;;
55931;SDS011;41837;55.700;37.984;2023-04-25T07:58:41;13.20;;;3.72;;
55931;SDS011;41837;55.700;37.984;2023-04-25T08:01:09;9.32;;;3.85;;
55931;SDS011;41837;55.700;37.984;2023-04-25T08:03:38;10.88;;;4.00;;
55931;SDS011;41837;55.700;37.984;2023-04-25T08:06:10;12.35;;;4.40;;
55931;SDS011;41837;55.700;37.984;2023-04-25T08:08:47;10.18;;;4.65;;
55931;SDS011;41837;55.700;37.984;2023-04-25T08:11:16;10.10;;;4.57;;
55931;SDS011;41837;55.700;37.984;2023-04-25T08:13:43;12.07;;;5.03;;
55931;SDS011;41837;55.700;37.984;2023-04-25T08:16:09;12.93;;;5.00;;
55931;SDS011;41837;55.700;37.984;2023-04-25T08:18:36;12.98;;;5.00;;
55931;SDS011;41837;55.700;37.984;2023-04-25T08:21:02;10.55;;;4.72;;
55931;SDS011;41837;55.700;37.984;2023-04-25T08:23:29;18.63;;;6.95;;
55931;SDS011;41837;55.700;37.984;2023-04-25T08:26:07;17.42;;;6.78;;
55931;SDS011;41837;55.700;37.984;2023-04-25T08:28:37;13.13;;;6.95;;
55931;SDS011;41837;55.700;37.984;2023-04-25T08:31:03;16.63;;;7.75;;
55931;SDS011;41837;55.700;37.984;2023-04-25T08:33:37;15.75;;;8.15;;
55931;SDS011;41837;55.700;37.984;2023-04-25T08:36:20;14.48;;;7.38;;
55931;SDS011;41837;55.700;37.984;2023-04-25T08:38:46;12.52;;;6.78;;
55931;SDS011;41837;55.700;37.984;2023-04-25T08:41:13;17.55;;;7.57;;
55931;SDS011;41837;55.700;37.984;2023-04-25T08:43:42;12.27;;;6.18;;
55931;SDS011;41837;55.700;37.984;2023-04-25T08:46:09;17.90;;;6.38;;
55931;SDS011;41837;55.700;37.984;2023-04-25T08:48:48;20.33;;;9.27;;
55931;SDS011;41837;55.700;37.984;2023-04-25T08:51:22;15.52;;;7.78;;
55931;SDS011;41837;55.700;37.984;2023-04-25T08:53:51;9.35;;;5.20;;
55931;SDS011;41837;55.700;37.984;2023-04-25T08:56:19;10.82;;;5.90;;
55931;SDS011;41837;55.700;37.984;2023-04-25T08:58:48;8.55;;;5.38;;
55931;SDS011;41837;55.700;37.984;2023-04-25T09:01:18;7.45;;;4.45;;
55931;SDS011;41837;55.700;37.984;2023-04-25T09:03:49;9.65;;;4.95;;
55931;SDS011;41837;55.700;37.984;2023-04-25T09:06:17;9.07;;;5.00;;
55931;SDS011;41837;55.700;37.984;2023-04-25T09:08:45;10.30;;;5.55;;
55931;SDS011;41837;55.700;37.984;2023-04-25T09:11:12;12.90;;;4.28;;
55931;SDS011;41837;55.700;37.984;2023-04-25T09:13:40;8.15;;;3.88;;
55931;SDS011;41837;55.700;37.984;2023-04-25T09:16:21;9.95;;;3.22;;
55931;SDS011;41837;55.700;37.984;2023-04-25T09:19:20;12.07;;;3.42;;
55931;SDS011;41837;55.700;37.984;2023-04-25T09:22:24;10.55;;;3.33;;
55931;SDS011;41837;55.700;37.984;2023-04-25T09:24:51;14.15;;;3.72;;
55931;SDS011;41837;55.700;37.984;2023-04-25T09:27:20;10.95;;;4.00;;
55931;SDS011;41837;55.700;37.984;2023-04-25T09:30:16;10.48;;;3.83;;
55931;SDS011;41837;55.700;37.984;2023-04-25T09:33:06;8.80;;;3.80;;
55931;SDS011;41837;55.700;37.984;2023-04-25T09:35:36;5.70;;;2.67;;
55931;SDS011;41837;55.700;37.984;2023-04-25T09:38:11;6.88;;;2.30;;
55931;SDS011;41837;55.700;37.984;2023-04-25T09:40:54;7.03;;;2.63;;
55931;SDS011;41837;55.700;37.984;2023-04-25T09:43:30;8.10;;;2.90;;
55931;SDS011;41837;55.700;37.984;2023-04-25T09:45:56;9.20;;;3.22;;
55931;SDS011;41837;55.700;37.984;2023-04-25T09:48:25;8.43;;;3.22;;
55931;SDS011;41837;55.700;37.984;2023-04-25T09:51:04;6.25;;;3.20;;
55931;SDS011;41837;55.700;37.984;2023-04-25T09:53:44;6.53;;;3.30;;
55931;SDS011;41837;55.700;37.984;2023-04-25T09:56:40;6.95;;;2.45;;
55931;SDS011;41837;55.700;37.984;2023-04-25T09:59:07;9.50;;;3.10;;
55931;SDS011;41837;55.700;37.984;2023-04-25T10:01:36;10.23;;;2.92;;
55931;SDS011;41837;55.700;37.984;2023-04-25T10:04:25;10.25;;;3.00;;
55931;SDS011;41837;55.700;37.984;2023-04-25T10:06:58;9.82;;;3.03;;
55931;SDS011;41837;55.700;37.984;2023-04-25T10:09:25;7.45;;;2.97;;
55931;SDS011;41837;55.700;37.984;2023-04-25T10:11:54;5.43;;;2.67;;
55931;SDS011;41837;55.700;37.984;2023-04-25T10:14:22;8.68;;;2.97;;
55931;SDS011;41837;55.700;37.984;2023-04-25T10:16:50;6.28;;;2.80;;
55931;SDS011;41837;55.700;37.984;2023-04-25T10:19:22;6.03;;;3.25;;
55931;SDS011;41837;55.700;37.984;2023-04-25T10:21:51;7.22;;;3.05;;
55931;SDS011;41837;55.700;37.984;2023-04-25T10:24:37;10.15;;;2.97;;
55931;SDS011;41837;55.700;37.984;2023-04-25T10:27:05;5.60;;;2.97;;
55931;SDS011;41837;55.700;37.984;2023-04-25T10:29:32;10.52;;;2.72;;
55931;SDS011;41837;55.700;37.984;2023-04-25T10:31:58;9.90;;;2.95;;
55931;SDS011;41837;55.700;37.984;2023-04-25T10:34:37;9.02;;;2.88;;
55931;SDS011;41837;55.700;37.984;2023-04-25T10:37:05;6.85;;;3.30;;
55931;SDS011;41837;55.700;37.984;2023-04-25T10:39:35;7.53;;;2.70;;
55931;SDS011;41837;55.700;37.984;2023-04-25T10:42:03;4.80;;;2.28;;
55931;SDS011;41837;55.700;37.984;2023-04-25T10:44:29;12.13;;;3.30;;
55931;SDS011;41837;55.700;37.984;2023-04-25T10:46:56;6.72;;;3.50;;
55931;SDS011;41837;55.700;37.984;2023-04-25T10:49:31;12.35;;;3.50;;
55931;SDS011;41837;55.700;37.984;2023-04-25T10:52:14;6.63;;;3.08;;
55931;SDS011;41837;55.700;37.984;2023-04-25T10:54:47;5.70;;;2.75;;
55931;SDS011;41837;55.700;37.984;2023-04-25T11:02:37;5.32;;;2.08;;
55931;SDS011;41837;55.700;37.984;2023-04-25T11:05:06;8.38;;;2.47;;
55931;SDS011;41837;55.700;37.984;2023-04-25T11:07:34;11.80;;;2.22;;
55931;SDS011;41837;55.700;37.984;2023-04-25T11:10:04;9.23;;;2.75;;
55931;SDS011;41837;55.700;37.984;2023-04-25T11:12:31;7.55;;;2.97;;
55931;SDS011;41837;55.700;37.984;2023-04-25T11:14:58;15.57;;;3.22;;
55931;SDS011;41837;55.700;37.984;2023-04-25T11:17:32;11.00;;;3.30;;
55931;SDS011;41837;55.700;37.984;2023-04-25T11:19:59;11.40;;;3.20;;
55931;SDS011;41837;55.700;37.984;2023-04-25T11:22:28;18.50;;;4.18;;
55931;SDS011;41837;55.700;37.984;2023-04-25T11:24:56;8.43;;;3.00;;
55931;SDS011;41837;55.700;37.984;2023-04-25T11:27:22;7.75;;;3.28;;
55931;SDS011;41837;55.700;37.984;2023-04-25T11:29:50;11.05;;;3.28;;
55931;SDS011;41837;55.700;37.984;2023-04-25T11:32:16;7.30;;;2.90;;
55931;SDS011;41837;55.700;37.984;2023-04-25T11:34:44;4.95;;;2.78;;
55931;SDS011;41837;55.700;37.984;2023-04-25T11:37:13;8.00;;;2.55;;
55931;SDS011;41837;55.700;37.984;2023-04-25T11:39:43;4.88;;;2.50;;
55931;SDS011;41837;55.700;37.984;2023-04-25T11:42:11;6.57;;;2.63;;
55931;SDS011;41837;55.700;37.984;2023-04-25T11:44:38;6.57;;;2.90;;
55931;SDS011;41837;55.700;37.984;2023-04-25T11:47:05;8.18;;;2.90;;
55931;SDS011;41837;55.700;37.984;2023-04-25T11:49:32;4.93;;;2.80;;
55931;SDS011;41837;55.700;37.984;2023-04-25T11:51:58;6.53;;;2.72;;
55931;SDS011;41837;55.700;37.984;2023-04-25T11:54:24;7.03;;;2.92;;
55931;SDS011;41837;55.700;37.984;2023-04-25T11:56:51;7.05;;;2.88;;
55931;SDS011;41837;55.700;37.984;2023-04-25T11:59:18;7.18;;;3.20;;
55931;SDS011;41837;55.700;37.984;2023-04-25T12:01:50;10.10;;;3.05;;
55931;SDS011;41837;55.700;37.984;2023-04-25T12:04:16;19.85;;;3.90;;
55931;SDS011;41837;55.700;37.984;2023-04-25T12:06:45;8.70;;;3.05;;
55931;SDS011;41837;55.700;37.984;2023-04-25T12:09:14;17.75;;;3.53;;
55931;SDS011;41837;55.700;37.984;2023-04-25T12:11:44;11.43;;;3.75;;
55931;SDS011;41837;55.700;37.984;2023-04-25T12:14:19;9.27;;;3.20;;
55931;SDS011;41837;55.700;37.984;2023-04-25T12:16:50;10.93;;;3.80;;
55931;SDS011;41837;55.700;37.984;2023-04-25T12:19:19;14.30;;;3.58;;
55931;SDS011;41837;55.700;37.984;2023-04-25T12:21:47;10.65;;;3.53;;
55931;SDS011;41837;55.700;37.984;2023-04-25T12:24:15;11.27;;;3.50;;
55931;SDS011;41837;55.700;37.984;2023-04-25T12:29:28;15.40;;;4.05;;
55931;SDS011;41837;55.700;37.984;2023-04-25T12:31:56;16.48;;;4.15;;
55931;SDS011;41837;55.700;37.984;2023-04-25T12:34:23;18.70;;;4.05;;
55931;SDS011;41837;55.700;37.984;2023-04-25T12:36:54;6.63;;;3.55;;
55931;SDS011;41837;55.700;37.984;2023-04-25T12:39:21;9.13;;;3.80;;
55931;SDS011;41837;55.700;37.984;2023-04-25T12:41:52;7.82;;;3.40;;
55931;SDS011;41837;55.700;37.984;2023-04-25T12:44:20;8.93;;;3.70;;
55931;SDS011;41837;55.700;37.984;2023-04-25T12:46:47;7.63;;;3.38;;
55931;SDS011;41837;55.700;37.984;2023-04-25T12:49:14;11.27;;;3.60;;
55931;SDS011;41837;55.700;37.984;2023-04-25T12:51:40;7.53;;;3.38;;
55931;SDS011;41837;55.700;37.984;2023-04-25T12:54:07;10.77;;;3.60;;
55931;SDS011;41837;55.700;37.984;2023-04-25T12:56:34;6.88;;;3.25;;
55931;SDS011;41837;55.700;37.984;2023-04-25T12:59:02;8.75;;;3.20;;
55931;SDS011;41837;55.700;37.984;2023-04-25T13:01:28;7.28;;;3.40;;
55931;SDS011;41837;55.700;37.984;2023-04-25T13:03:55;12.13;;;3.97;;
55931;SDS011;41837;55.700;37.984;2023-04-25T13:06:22;8.80;;;3.08;;
55931;SDS011;41837;55.700;37.984;2023-04-25T13:08:48;7.45;;;3.72;;
55931;SDS011;41837;55.700;37.984;2023-04-25T13:11:14;7.40;;;3.30;;
55931;SDS011;41837;55.700;37.984;2023-04-25T13:13:41;6.53;;;3.40;;
55931;SDS011;41837;55.700;37.984;2023-04-25T13:16:08;6.70;;;3.25;;
55931;SDS011;41837;55.700;37.984;2023-04-25T13:18:34;7.90;;;3.65;;
55931;SDS011;41837;55.700;37.984;2023-04-25T13:21:01;6.80;;;3.42;;
55931;SDS011;41837;55.700;37.984;2023-04-25T13:23:28;11.73;;;4.18;;
55931;SDS011;41837;55.700;37.984;2023-04-25T13:25:55;8.68;;;3.35;;
55931;SDS011;41837;55.700;37.984;2023-04-25T13:28:24;6.25;;;3.67;;
55931;SDS011;41837;55.700;37.984;2023-04-25T13:30:50;4.22;;;3.17;;
55931;SDS011;41837;55.700;37.984;2023-04-25T13:33:18;7.65;;;2.75;;
55931;SDS011;41837;55.700;37.984;2023-04-25T13:35:46;9.55;;;3.08;;
55931;SDS011;41837;55.700;37.984;2023-04-25T13:38:20;13.27;;;3.85;;
55931;SDS011;41837;55.700;37.984;2023-04-25T13:40:48;11.82;;;3.47;;
55931;SDS011;41837;55.700;37.984;2023-04-25T13:43:14;12.43;;;3.42;;
55931;SDS011;41837;55.700;37.984;2023-04-25T13:45:40;15.05;;;4.72;;
55931;SDS011;41837;55.700;37.984;2023-04-25T13:48:06;12.18;;;5.78;;
55931;SDS011;41837;55.700;37.984;2023-04-25T13:50:32;13.85;;;3.90;;
55931;SDS011;41837;55.700;37.984;2023-04-25T13:52:58;19.50;;;3.70;;
55931;SDS011;41837;55.700;37.984;2023-04-25T13:55:25;20.73;;;4.38;;
55931;SDS011;41837;55.700;37.984;2023-04-25T13:57:52;12.90;;;3.33;;
55931;SDS011;41837;55.700;37.984;2023-04-25T14:00:18;9.63;;;3.83;;
55931;SDS011;41837;55.700;37.984;2023-04-25T14:02:44;9.57;;;3.35;;
55931;SDS011;41837;55.700;37.984;2023-04-25T14:05:11;21.67;;;3.88;;
55931;SDS011;41837;55.700;37.984;2023-04-25T14:07:37;14.77;;;3.70;;
55931;SDS011;41837;55.700;37.984;2023-04-25T14:10:04;14.40;;;3.60;;
55931;SDS011;41837;55.700;37.984;2023-04-25T14:12:31;13.20;;;3.50;;
55931;SDS011;41837;55.700;37.984;2023-04-25T14:14:58;8.85;;;3.55;;
55931;SDS011;41837;55.700;37.984;2023-04-25T14:17:24;9.40;;;2.90;;
55931;SDS011;41837;55.700;37.984;2023-04-25T14:19:51;10.32;;;3.58;;
55931;SDS011;41837;55.700;37.984;2023-04-25T14:22:17;14.55;;;3.50;;
55931;SDS011;41837;55.700;37.984;2023-04-25T14:24:43;14.65;;;3.85;;
55931;SDS011;41837;55.700;37.984;2023-04-25T14:27:09;10.68;;;3.70;;
55931;SDS011;41837;55.700;37.984;2023-04-25T14:29:36;14.63;;;4.00;;
55931;SDS011;41837;55.700;37.984;2023-04-25T14:32:02;10.65;;;3.60;;
55931;SDS011;41837;55.700;37.984;2023-04-25T14:34:31;6.03;;;2.88;;
55931;SDS011;41837;55.700;37.984;2023-04-25T14:36:57;3.83;;;2.42;;
55931;SDS011;41837;55.700;37.984;2023-04-25T14:39:23;8.18;;;3.22;;
55931;SDS011;41837;55.700;37.984;2023-04-25T14:41:49;6.32;;;3.85;;
55931;SDS011;41837;55.700;37.984;2023-04-25T14:44:15;8.20;;;3.63;;
55931;SDS011;41837;55.700;37.984;2023-04-25T14:46:41;6.65;;;2.60;;
55931;SDS011;41837;55.700;37.984;2023-04-25T14:49:07;8.52;;;2.90;;
55931;SDS011;41837;55.700;37.984;2023-04-25T14:51:33;11.90;;;3.05;;